sensor_id;sensor_type;location;lat;lon;timestamp;P1;durP1;ratioP1;P2;durP2;ratioP2
8580;SDS011;4328;48.622;9.230;2022-12-07T00:00:56;5.13;;;4.63;;
8580;SDS011;4328;48.622;9.230;2022-12-07T00:03:31;4.60;;;4.20;;
8580;SDS011;4328;48.622;9.230;2022-12-07T00:05:58;5.13;;;4.60;;
8580;SDS011;4328;48.622;9.230;2022-12-07T00:08:24;4.93;;;4.53;;
8580;SDS011;4328;48.622;9.230;2022-12-07T00:10:51;5.47;;;4.97;;
8580;SDS011;4328;48.622;9.230;2022-12-07T00:13:18;5.07;;;4.67;;
8580;SDS011;4328;48.622;9.230;2022-12-07T00:15:44;5.47;;;4.90;;
8580;SDS011;4328;48.622;9.230;2022-12-07T00:18:12;4.67;;;4.27;;
8580;SDS011;4328;48.622;9.230;2022-12-07T00:20:39;4.87;;;4.47;;
8580;SDS011;4328;48.622;9.230;2022-12-07T00:23:06;7.43;;;4.63;;
8580;SDS011;4328;48.622;9.230;2022-12-07T00:25:32;7.80;;;4.80;;
8580;SDS011;4328;48.622;9.230;2022-12-07T00:27:59;4.83;;;4.40;;
8580;SDS011;4328;48.622;9.230;2022-12-07T00:30:26;4.80;;;4.40;;
8580;SDS011;4328;48.622;9.230;2022-12-07T00:32:52;4.87;;;4.47;;
8580;SDS011;4328;48.622;9.230;2022-12-07T00:35:20;4.77;;;4.30;;
8580;SDS011;4328;48.622;9.230;2022-12-07T00:37:47;4.63;;;4.23;;
8580;SDS011;4328;48.622;9.230;2022-12-07T00:40:14;5.63;;;4.50;;
8580;SDS011;4328;48.622;9.230;2022-12-07T00:42:40;4.47;;;4.03;;
8580;SDS011;4328;48.622;9.230;2022-12-07T00:45:07;5.13;;;4.10;;
8580;SDS011;4328;48.622;9.230;2022-12-07T00:47:35;4.50;;;4.10;;
8580;SDS011;4328;48.622;9.230;2022-12-07T00:50:02;4.80;;;4.40;;
8580;SDS011;4328;48.622;9.230;2022-12-07T00:52:30;4.97;;;4.47;;
8580;SDS011;4328;48.622;9.230;2022-12-07T00:54:57;4.30;;;3.90;;
8580;SDS011;4328;48.622;9.230;2022-12-07T00:57:23;4.67;;;4.10;;
8580;SDS011;4328;48.622;9.230;2022-12-07T00:59:50;4.90;;;4.33;;
8580;SDS011;4328;48.622;9.230;2022-12-07T01:02:20;4.97;;;4.30;;
8580;SDS011;4328;48.622;9.230;2022-12-07T01:04:47;4.60;;;4.20;;
8580;SDS011;4328;48.622;9.230;2022-12-07T01:07:13;4.53;;;4.13;;
8580;SDS011;4328;48.622;9.230;2022-12-07T01:09:42;4.50;;;4.10;;
8580;SDS011;4328;48.622;9.230;2022-12-07T01:12:08;4.50;;;3.93;;
8580;SDS011;4328;48.622;9.230;2022-12-07T01:14:35;4.47;;;4.10;;
8580;SDS011;4328;48.622;9.230;2022-12-07T01:17:02;5.40;;;4.70;;
8580;SDS011;4328;48.622;9.230;2022-12-07T01:19:28;7.13;;;4.53;;
8580;SDS011;4328;48.622;9.230;2022-12-07T01:21:55;5.00;;;4.27;;
8580;SDS011;4328;48.622;9.230;2022-12-07T01:24:22;4.53;;;4.13;;
8580;SDS011;4328;48.622;9.230;2022-12-07T01:26:50;4.40;;;4.00;;
8580;SDS011;4328;48.622;9.230;2022-12-07T01:29:16;4.60;;;4.20;;
8580;SDS011;4328;48.622;9.230;2022-12-07T01:31:43;4.50;;;4.10;;
8580;SDS011;4328;48.622;9.230;2022-12-07T01:34:10;4.57;;;4.17;;
8580;SDS011;4328;48.622;9.230;2022-12-07T01:36:36;5.07;;;4.13;;
8580;SDS011;4328;48.622;9.230;2022-12-07T01:39:03;4.67;;;4.23;;
8580;SDS011;4328;48.622;9.230;2022-12-07T01:41:32;4.53;;;4.13;;
8580;SDS011;4328;48.622;9.230;2022-12-07T01:44:10;5.20;;;3.80;;
8580;SDS011;4328;48.622;9.230;2022-12-07T01:46:45;4.30;;;3.90;;
8580;SDS011;4328;48.622;9.230;2022-12-07T01:49:22;4.27;;;3.87;;
8580;SDS011;4328;48.622;9.230;2022-12-07T01:51:53;4.23;;;3.57;;
8580;SDS011;4328;48.622;9.230;2022-12-07T01:54:24;5.03;;;3.70;;
8580;SDS011;4328;48.622;9.230;2022-12-07T01:56:53;5.13;;;3.90;;
8580;SDS011;4328;48.622;9.230;2022-12-07T01:59:24;4.20;;;3.63;;
8580;SDS011;4328;48.622;9.230;2022-12-07T02:01:52;3.90;;;3.60;;
8580;SDS011;4328;48.622;9.230;2022-12-07T02:04:20;4.10;;;3.50;;
8580;SDS011;4328;48.622;9.230;2022-12-07T02:06:48;9.20;;;4.37;;
8580;SDS011;4328;48.622;9.230;2022-12-07T02:09:14;4.90;;;4.43;;
8580;SDS011;4328;48.622;9.230;2022-12-07T02:11:41;4.87;;;4.13;;
8580;SDS011;4328;48.622;9.230;2022-12-07T02:14:08;4.33;;;3.90;;
8580;SDS011;4328;48.622;9.230;2022-12-07T02:16:38;5.00;;;4.60;;
8580;SDS011;4328;48.622;9.230;2022-12-07T02:19:33;4.80;;;4.40;;
8580;SDS011;4328;48.622;9.230;2022-12-07T02:22:32;6.90;;;4.90;;
8580;SDS011;4328;48.622;9.230;2022-12-07T02:25:20;4.80;;;4.30;;
8580;SDS011;4328;48.622;9.230;2022-12-07T02:27:56;4.83;;;4.23;;
8580;SDS011;4328;48.622;9.230;2022-12-07T02:30:32;5.67;;;4.80;;
8580;SDS011;4328;48.622;9.230;2022-12-07T02:33:04;7.67;;;6.17;;
8580;SDS011;4328;48.622;9.230;2022-12-07T02:35:36;6.07;;;5.50;;
8580;SDS011;4328;48.622;9.230;2022-12-07T02:38:08;6.97;;;6.27;;
8580;SDS011;4328;48.622;9.230;2022-12-07T02:40:41;7.13;;;6.43;;
8580;SDS011;4328;48.622;9.230;2022-12-07T02:43:14;7.30;;;6.30;;
8580;SDS011;4328;48.622;9.230;2022-12-07T02:45:45;6.23;;;5.63;;
8580;SDS011;4328;48.622;9.230;2022-12-07T02:48:14;5.83;;;5.20;;
8580;SDS011;4328;48.622;9.230;2022-12-07T02:50:44;5.57;;;4.83;;
8580;SDS011;4328;48.622;9.230;2022-12-07T02:55:54;4.60;;;4.17;;
8580;SDS011;4328;48.622;9.230;2022-12-07T02:58:23;5.80;;;4.97;;
8580;SDS011;4328;48.622;9.230;2022-12-07T03:01:03;4.90;;;4.40;;
8580;SDS011;4328;48.622;9.230;2022-12-07T03:03:35;4.70;;;4.30;;
8580;SDS011;4328;48.622;9.230;2022-12-07T03:06:06;4.83;;;4.40;;
8580;SDS011;4328;48.622;9.230;2022-12-07T03:08:41;4.70;;;4.30;;
8580;SDS011;4328;48.622;9.230;2022-12-07T03:11:14;4.83;;;4.33;;
8580;SDS011;4328;48.622;9.230;2022-12-07T03:13:48;4.87;;;4.40;;
8580;SDS011;4328;48.622;9.230;2022-12-07T03:16:22;5.57;;;5.07;;
8580;SDS011;4328;48.622;9.230;2022-12-07T03:18:53;4.97;;;4.47;;
8580;SDS011;4328;48.622;9.230;2022-12-07T03:21:23;6.40;;;5.17;;
8580;SDS011;4328;48.622;9.230;2022-12-07T03:23:53;6.00;;;5.20;;
8580;SDS011;4328;48.622;9.230;2022-12-07T03:26:24;5.47;;;4.97;;
8580;SDS011;4328;48.622;9.230;2022-12-07T03:28:58;5.50;;;5.00;;
8580;SDS011;4328;48.622;9.230;2022-12-07T03:31:30;5.60;;;4.97;;
8580;SDS011;4328;48.622;9.230;2022-12-07T03:34:01;6.00;;;5.40;;
8580;SDS011;4328;48.622;9.230;2022-12-07T03:36:35;6.43;;;5.60;;
8580;SDS011;4328;48.622;9.230;2022-12-07T03:39:07;6.10;;;5.33;;
8580;SDS011;4328;48.622;9.230;2022-12-07T03:41:43;5.80;;;5.20;;
8580;SDS011;4328;48.622;9.230;2022-12-07T03:44:11;6.87;;;5.60;;
8580;SDS011;4328;48.622;9.230;2022-12-07T03:46:42;5.93;;;5.33;;
8580;SDS011;4328;48.622;9.230;2022-12-07T03:49:11;5.90;;;5.30;;
8580;SDS011;4328;48.622;9.230;2022-12-07T03:51:45;6.27;;;5.67;;
8580;SDS011;4328;48.622;9.230;2022-12-07T03:54:18;5.83;;;5.03;;
8580;SDS011;4328;48.622;9.230;2022-12-07T03:56:49;5.73;;;5.13;;
8580;SDS011;4328;48.622;9.230;2022-12-07T03:59:18;5.97;;;5.37;;
8580;SDS011;4328;48.622;9.230;2022-12-07T04:01:52;6.37;;;5.77;;
8580;SDS011;4328;48.622;9.230;2022-12-07T04:04:20;9.53;;;6.50;;
8580;SDS011;4328;48.622;9.230;2022-12-07T04:06:47;7.07;;;6.13;;
8580;SDS011;4328;48.622;9.230;2022-12-07T04:09:14;6.60;;;5.90;;
8580;SDS011;4328;48.622;9.230;2022-12-07T04:11:40;7.60;;;6.03;;
8580;SDS011;4328;48.622;9.230;2022-12-07T04:14:07;7.20;;;6.13;;
8580;SDS011;4328;48.622;9.230;2022-12-07T04:16:46;6.93;;;6.23;;
8580;SDS011;4328;48.622;9.230;2022-12-07T04:19:14;7.27;;;5.93;;
8580;SDS011;4328;48.622;9.230;2022-12-07T04:21:41;7.53;;;5.63;;
8580;SDS011;4328;48.622;9.230;2022-12-07T04:24:08;6.60;;;5.90;;
8580;SDS011;4328;48.622;9.230;2022-12-07T04:26:35;7.03;;;6.07;;
8580;SDS011;4328;48.622;9.230;2022-12-07T04:29:02;6.07;;;5.47;;
8580;SDS011;4328;48.622;9.230;2022-12-07T04:31:29;6.50;;;5.80;;
8580;SDS011;4328;48.622;9.230;2022-12-07T04:33:56;6.30;;;5.37;;
8580;SDS011;4328;48.622;9.230;2022-12-07T04:36:24;6.90;;;6.20;;
8580;SDS011;4328;48.622;9.230;2022-12-07T04:38:52;8.03;;;6.17;;
8580;SDS011;4328;48.622;9.230;2022-12-07T04:41:19;6.70;;;6.03;;
8580;SDS011;4328;48.622;9.230;2022-12-07T04:43:51;8.80;;;6.13;;
8580;SDS011;4328;48.622;9.230;2022-12-07T04:46:19;7.43;;;6.70;;
8580;SDS011;4328;48.622;9.230;2022-12-07T04:48:46;6.63;;;5.93;;
8580;SDS011;4328;48.622;9.230;2022-12-07T04:51:12;7.03;;;6.33;;
8580;SDS011;4328;48.622;9.230;2022-12-07T04:53:42;7.93;;;5.63;;
8580;SDS011;4328;48.622;9.230;2022-12-07T04:56:08;7.33;;;6.10;;
8580;SDS011;4328;48.622;9.230;2022-12-07T04:58:35;7.30;;;5.67;;
8580;SDS011;4328;48.622;9.230;2022-12-07T05:01:01;7.23;;;5.70;;
8580;SDS011;4328;48.622;9.230;2022-12-07T05:03:28;6.70;;;6.10;;
8580;SDS011;4328;48.622;9.230;2022-12-07T05:05:55;7.80;;;5.60;;
8580;SDS011;4328;48.622;9.230;2022-12-07T05:08:21;7.30;;;6.50;;
8580;SDS011;4328;48.622;9.230;2022-12-07T05:10:49;7.53;;;6.20;;
8580;SDS011;4328;48.622;9.230;2022-12-07T05:13:16;7.10;;;6.30;;
8580;SDS011;4328;48.622;9.230;2022-12-07T05:15:43;7.83;;;6.40;;
8580;SDS011;4328;48.622;9.230;2022-12-07T05:18:09;7.87;;;6.87;;
8580;SDS011;4328;48.622;9.230;2022-12-07T05:20:37;8.13;;;6.60;;
8580;SDS011;4328;48.622;9.230;2022-12-07T05:23:04;7.97;;;7.13;;
8580;SDS011;4328;48.622;9.230;2022-12-07T05:25:30;8.27;;;6.23;;
8580;SDS011;4328;48.622;9.230;2022-12-07T05:27:58;7.73;;;6.27;;
8580;SDS011;4328;48.622;9.230;2022-12-07T05:30:25;7.63;;;6.70;;
8580;SDS011;4328;48.622;9.230;2022-12-07T05:32:54;8.30;;;6.73;;
8580;SDS011;4328;48.622;9.230;2022-12-07T05:35:21;25.23;;;16.57;;
8580;SDS011;4328;48.622;9.230;2022-12-07T05:37:48;13.63;;;10.40;;
8580;SDS011;4328;48.622;9.230;2022-12-07T05:40:14;7.77;;;6.97;;
8580;SDS011;4328;48.622;9.230;2022-12-07T05:42:42;8.87;;;6.80;;
8580;SDS011;4328;48.622;9.230;2022-12-07T05:45:10;6.83;;;6.13;;
8580;SDS011;4328;48.622;9.230;2022-12-07T05:47:37;6.77;;;5.90;;
8580;SDS011;4328;48.622;9.230;2022-12-07T05:50:04;7.40;;;5.97;;
8580;SDS011;4328;48.622;9.230;2022-12-07T05:52:32;8.43;;;6.50;;
8580;SDS011;4328;48.622;9.230;2022-12-07T05:54:59;7.00;;;6.30;;
8580;SDS011;4328;48.622;9.230;2022-12-07T05:57:25;7.77;;;6.43;;
8580;SDS011;4328;48.622;9.230;2022-12-07T05:59:52;8.63;;;6.80;;
8580;SDS011;4328;48.622;9.230;2022-12-07T06:02:19;8.70;;;7.80;;
8580;SDS011;4328;48.622;9.230;2022-12-07T06:04:46;8.13;;;7.20;;
8580;SDS011;4328;48.622;9.230;2022-12-07T06:07:13;7.57;;;6.67;;
8580;SDS011;4328;48.622;9.230;2022-12-07T06:09:41;8.03;;;6.93;;
8580;SDS011;4328;48.622;9.230;2022-12-07T06:12:09;8.23;;;6.93;;
8580;SDS011;4328;48.622;9.230;2022-12-07T06:14:54;9.33;;;7.23;;
8580;SDS011;4328;48.622;9.230;2022-12-07T06:17:22;7.17;;;6.40;;
8580;SDS011;4328;48.622;9.230;2022-12-07T06:19:48;7.87;;;6.47;;
8580;SDS011;4328;48.622;9.230;2022-12-07T06:22:15;8.03;;;6.67;;
8580;SDS011;4328;48.622;9.230;2022-12-07T06:24:43;8.30;;;6.40;;
8580;SDS011;4328;48.622;9.230;2022-12-07T06:27:10;9.07;;;6.90;;
8580;SDS011;4328;48.622;9.230;2022-12-07T06:29:37;8.23;;;6.80;;
8580;SDS011;4328;48.622;9.230;2022-12-07T06:32:04;7.60;;;6.33;;
8580;SDS011;4328;48.622;9.230;2022-12-07T06:34:32;7.93;;;6.10;;
8580;SDS011;4328;48.622;9.230;2022-12-07T06:36:59;7.40;;;6.30;;
8580;SDS011;4328;48.622;9.230;2022-12-07T06:39:26;6.90;;;6.20;;
8580;SDS011;4328;48.622;9.230;2022-12-07T06:41:54;8.30;;;6.80;;
8580;SDS011;4328;48.622;9.230;2022-12-07T06:44:21;8.50;;;7.30;;
8580;SDS011;4328;48.622;9.230;2022-12-07T06:46:48;8.43;;;6.23;;
8580;SDS011;4328;48.622;9.230;2022-12-07T06:49:15;8.27;;;6.63;;
8580;SDS011;4328;48.622;9.230;2022-12-07T06:51:43;7.50;;;6.17;;
8580;SDS011;4328;48.622;9.230;2022-12-07T06:54:10;6.70;;;5.83;;
8580;SDS011;4328;48.622;9.230;2022-12-07T06:56:39;7.30;;;5.70;;
8580;SDS011;4328;48.622;9.230;2022-12-07T06:59:06;8.77;;;6.50;;
8580;SDS011;4328;48.622;9.230;2022-12-07T07:01:33;6.93;;;5.80;;
8580;SDS011;4328;48.622;9.230;2022-12-07T07:04:01;7.07;;;5.60;;
8580;SDS011;4328;48.622;9.230;2022-12-07T07:06:28;8.33;;;6.60;;
8580;SDS011;4328;48.622;9.230;2022-12-07T07:08:56;7.10;;;5.50;;
8580;SDS011;4328;48.622;9.230;2022-12-07T07:11:23;6.63;;;5.57;;
8580;SDS011;4328;48.622;9.230;2022-12-07T07:13:49;7.67;;;5.77;;
8580;SDS011;4328;48.622;9.230;2022-12-07T07:16:17;8.67;;;6.37;;
8580;SDS011;4328;48.622;9.230;2022-12-07T07:18:43;7.30;;;6.47;;
8580;SDS011;4328;48.622;9.230;2022-12-07T07:21:10;8.93;;;6.50;;
8580;SDS011;4328;48.622;9.230;2022-12-07T07:23:37;7.27;;;6.23;;
8580;SDS011;4328;48.622;9.230;2022-12-07T07:26:05;6.97;;;5.67;;
8580;SDS011;4328;48.622;9.230;2022-12-07T07:28:31;6.43;;;5.60;;
8580;SDS011;4328;48.622;9.230;2022-12-07T07:30:58;5.70;;;5.03;;
8580;SDS011;4328;48.622;9.230;2022-12-07T07:33:25;5.57;;;4.97;;
8580;SDS011;4328;48.622;9.230;2022-12-07T07:35:51;7.07;;;5.33;;
8580;SDS011;4328;48.622;9.230;2022-12-07T07:38:18;5.90;;;5.40;;
8580;SDS011;4328;48.622;9.230;2022-12-07T07:40:45;6.57;;;5.60;;
8580;SDS011;4328;48.622;9.230;2022-12-07T07:43:13;6.33;;;5.73;;
8580;SDS011;4328;48.622;9.230;2022-12-07T07:45:40;5.90;;;5.30;;
8580;SDS011;4328;48.622;9.230;2022-12-07T07:48:06;7.03;;;5.73;;
8580;SDS011;4328;48.622;9.230;2022-12-07T07:50:33;7.67;;;5.37;;
8580;SDS011;4328;48.622;9.230;2022-12-07T07:53:00;6.07;;;5.47;;
8580;SDS011;4328;48.622;9.230;2022-12-07T07:55:26;8.17;;;5.53;;
8580;SDS011;4328;48.622;9.230;2022-12-07T07:57:53;6.53;;;5.83;;
8580;SDS011;4328;48.622;9.230;2022-12-07T08:00:21;5.43;;;4.97;;
8580;SDS011;4328;48.622;9.230;2022-12-07T08:02:48;6.13;;;5.30;;
8580;SDS011;4328;48.622;9.230;2022-12-07T08:05:15;5.90;;;5.30;;
8580;SDS011;4328;48.622;9.230;2022-12-07T08:07:42;6.37;;;5.27;;
8580;SDS011;4328;48.622;9.230;2022-12-07T08:10:09;5.73;;;4.93;;
8580;SDS011;4328;48.622;9.230;2022-12-07T08:12:37;5.63;;;5.13;;
8580;SDS011;4328;48.622;9.230;2022-12-07T08:15:27;5.80;;;5.07;;
8580;SDS011;4328;48.622;9.230;2022-12-07T08:17:55;5.57;;;4.97;;
8580;SDS011;4328;48.622;9.230;2022-12-07T08:20:21;5.60;;;5.07;;
8580;SDS011;4328;48.622;9.230;2022-12-07T08:22:48;5.73;;;4.53;;
8580;SDS011;4328;48.622;9.230;2022-12-07T08:25:15;5.33;;;4.53;;
8580;SDS011;4328;48.622;9.230;2022-12-07T08:27:42;5.17;;;4.67;;
8580;SDS011;4328;48.622;9.230;2022-12-07T08:30:09;5.40;;;4.90;;
8580;SDS011;4328;48.622;9.230;2022-12-07T08:32:37;5.37;;;4.80;;
8580;SDS011;4328;48.622;9.230;2022-12-07T08:35:05;5.77;;;5.17;;
8580;SDS011;4328;48.622;9.230;2022-12-07T08:37:32;5.40;;;4.90;;
8580;SDS011;4328;48.622;9.230;2022-12-07T08:39:59;6.00;;;4.93;;
8580;SDS011;4328;48.622;9.230;2022-12-07T08:42:25;5.33;;;4.83;;
8580;SDS011;4328;48.622;9.230;2022-12-07T08:44:55;5.30;;;4.77;;
8580;SDS011;4328;48.622;9.230;2022-12-07T08:47:21;6.00;;;5.40;;
8580;SDS011;4328;48.622;9.230;2022-12-07T08:49:50;5.90;;;5.20;;
8580;SDS011;4328;48.622;9.230;2022-12-07T08:52:19;6.20;;;5.40;;
8580;SDS011;4328;48.622;9.230;2022-12-07T08:54:46;5.80;;;5.13;;
8580;SDS011;4328;48.622;9.230;2022-12-07T08:57:13;5.87;;;5.27;;
8580;SDS011;4328;48.622;9.230;2022-12-07T08:59:40;6.53;;;5.93;;
8580;SDS011;4328;48.622;9.230;2022-12-07T09:02:06;7.53;;;6.23;;
8580;SDS011;4328;48.622;9.230;2022-12-07T09:04:33;6.77;;;6.10;;
8580;SDS011;4328;48.622;9.230;2022-12-07T09:07:01;9.27;;;5.83;;
8580;SDS011;4328;48.622;9.230;2022-12-07T09:09:29;6.77;;;6.07;;
8580;SDS011;4328;48.622;9.230;2022-12-07T09:11:55;7.87;;;6.50;;
8580;SDS011;4328;48.622;9.230;2022-12-07T09:14:22;6.73;;;5.97;;
8580;SDS011;4328;48.622;9.230;2022-12-07T09:16:49;6.90;;;6.00;;
8580;SDS011;4328;48.622;9.230;2022-12-07T09:19:16;7.33;;;5.97;;
8580;SDS011;4328;48.622;9.230;2022-12-07T09:21:42;6.37;;;5.77;;
8580;SDS011;4328;48.622;9.230;2022-12-07T09:24:11;6.83;;;5.70;;
8580;SDS011;4328;48.622;9.230;2022-12-07T09:26:37;7.17;;;5.93;;
8580;SDS011;4328;48.622;9.230;2022-12-07T09:29:05;8.40;;;6.27;;
8580;SDS011;4328;48.622;9.230;2022-12-07T09:31:32;6.20;;;5.60;;
8580;SDS011;4328;48.622;9.230;2022-12-07T09:33:59;7.20;;;6.50;;
8580;SDS011;4328;48.622;9.230;2022-12-07T09:36:27;6.23;;;5.63;;
8580;SDS011;4328;48.622;9.230;2022-12-07T09:38:54;6.70;;;6.00;;
8580;SDS011;4328;48.622;9.230;2022-12-07T09:41:23;6.43;;;5.73;;
8580;SDS011;4328;48.622;9.230;2022-12-07T09:43:51;6.27;;;5.67;;
8580;SDS011;4328;48.622;9.230;2022-12-07T09:46:19;5.83;;;5.10;;
8580;SDS011;4328;48.622;9.230;2022-12-07T09:48:47;7.27;;;6.00;;
8580;SDS011;4328;48.622;9.230;2022-12-07T09:51:16;5.93;;;5.20;;
8580;SDS011;4328;48.622;9.230;2022-12-07T09:53:45;5.47;;;4.87;;
8580;SDS011;4328;48.622;9.230;2022-12-07T09:56:13;5.63;;;5.10;;
8580;SDS011;4328;48.622;9.230;2022-12-07T09:58:42;6.43;;;5.30;;
8580;SDS011;4328;48.622;9.230;2022-12-07T10:01:11;5.37;;;4.80;;
8580;SDS011;4328;48.622;9.230;2022-12-07T10:03:40;4.93;;;4.50;;
8580;SDS011;4328;48.622;9.230;2022-12-07T10:06:14;5.10;;;4.60;;
8580;SDS011;4328;48.622;9.230;2022-12-07T10:08:41;5.40;;;4.90;;
8580;SDS011;4328;48.622;9.230;2022-12-07T10:11:08;5.83;;;5.03;;
8580;SDS011;4328;48.622;9.230;2022-12-07T10:13:37;5.43;;;4.93;;
8580;SDS011;4328;48.622;9.230;2022-12-07T10:16:08;4.87;;;4.43;;
8580;SDS011;4328;48.622;9.230;2022-12-07T10:19:16;6.93;;;5.00;;
8580;SDS011;4328;48.622;9.230;2022-12-07T10:21:58;5.47;;;4.90;;
8580;SDS011;4328;48.622;9.230;2022-12-07T10:24:27;5.10;;;4.60;;
8580;SDS011;4328;48.622;9.230;2022-12-07T10:26:54;5.70;;;4.37;;
8580;SDS011;4328;48.622;9.230;2022-12-07T10:29:22;5.20;;;4.57;;
8580;SDS011;4328;48.622;9.230;2022-12-07T10:31:52;5.47;;;4.83;;
8580;SDS011;4328;48.622;9.230;2022-12-07T10:34:22;5.13;;;4.63;;
8580;SDS011;4328;48.622;9.230;2022-12-07T10:36:51;5.97;;;4.20;;
8580;SDS011;4328;48.622;9.230;2022-12-07T10:39:19;5.60;;;4.37;;
8580;SDS011;4328;48.622;9.230;2022-12-07T10:41:53;5.97;;;4.00;;
8580;SDS011;4328;48.622;9.230;2022-12-07T10:44:22;4.90;;;3.73;;
8580;SDS011;4328;48.622;9.230;2022-12-07T10:53:06;4.47;;;3.30;;
8580;SDS011;4328;48.622;9.230;2022-12-07T10:55:53;4.30;;;3.60;;
8580;SDS011;4328;48.622;9.230;2022-12-07T10:58:37;5.10;;;4.10;;
8580;SDS011;4328;48.622;9.230;2022-12-07T11:01:18;4.53;;;4.13;;
8580;SDS011;4328;48.622;9.230;2022-12-07T11:03:55;5.17;;;4.17;;
8580;SDS011;4328;48.622;9.230;2022-12-07T11:06:46;5.20;;;4.33;;
8580;SDS011;4328;48.622;9.230;2022-12-07T11:09:27;10.50;;;4.93;;
8580;SDS011;4328;48.622;9.230;2022-12-07T11:12:17;4.50;;;4.03;;
8580;SDS011;4328;48.622;9.230;2022-12-07T11:14:54;5.07;;;4.23;;
8580;SDS011;4328;48.622;9.230;2022-12-07T11:17:29;4.90;;;4.43;;
8580;SDS011;4328;48.622;9.230;2022-12-07T11:20:11;6.63;;;5.33;;
8580;SDS011;4328;48.622;9.230;2022-12-07T11:22:48;5.90;;;4.27;;
8580;SDS011;4328;48.622;9.230;2022-12-07T11:25:26;4.97;;;4.10;;
8580;SDS011;4328;48.622;9.230;2022-12-07T11:28:03;4.90;;;3.90;;
8580;SDS011;4328;48.622;9.230;2022-12-07T11:30:42;3.77;;;3.33;;
8580;SDS011;4328;48.622;9.230;2022-12-07T11:33:15;3.77;;;3.47;;
8580;SDS011;4328;48.622;9.230;2022-12-07T11:35:51;4.07;;;3.60;;
8580;SDS011;4328;48.622;9.230;2022-12-07T11:38:31;3.17;;;2.90;;
8580;SDS011;4328;48.622;9.230;2022-12-07T11:41:08;3.80;;;2.93;;
8580;SDS011;4328;48.622;9.230;2022-12-07T11:43:46;3.70;;;3.17;;
8580;SDS011;4328;48.622;9.230;2022-12-07T11:46:19;4.67;;;4.00;;
8580;SDS011;4328;48.622;9.230;2022-12-07T11:48:52;4.30;;;3.90;;
8580;SDS011;4328;48.622;9.230;2022-12-07T11:51:29;5.10;;;3.90;;
8580;SDS011;4328;48.622;9.230;2022-12-07T11:54:02;5.40;;;3.77;;
8580;SDS011;4328;48.622;9.230;2022-12-07T11:56:35;4.60;;;4.10;;
8580;SDS011;4328;48.622;9.230;2022-12-07T11:59:04;4.40;;;4.00;;
8580;SDS011;4328;48.622;9.230;2022-12-07T12:01:47;4.33;;;3.93;;
8580;SDS011;4328;48.622;9.230;2022-12-07T12:04:25;4.57;;;4.10;;
8580;SDS011;4328;48.622;9.230;2022-12-07T12:06:58;4.77;;;4.30;;
8580;SDS011;4328;48.622;9.230;2022-12-07T12:09:26;5.17;;;4.67;;
8580;SDS011;4328;48.622;9.230;2022-12-07T12:12:04;5.00;;;4.53;;
8580;SDS011;4328;48.622;9.230;2022-12-07T12:14:46;4.83;;;4.27;;
8580;SDS011;4328;48.622;9.230;2022-12-07T12:17:27;4.93;;;4.27;;
8580;SDS011;4328;48.622;9.230;2022-12-07T12:20:17;5.10;;;4.57;;
8580;SDS011;4328;48.622;9.230;2022-12-07T12:22:50;4.80;;;4.30;;
8580;SDS011;4328;48.622;9.230;2022-12-07T12:25:21;6.27;;;5.23;;
8580;SDS011;4328;48.622;9.230;2022-12-07T12:27:50;5.37;;;4.87;;
8580;SDS011;4328;48.622;9.230;2022-12-07T12:30:25;5.80;;;5.20;;
8580;SDS011;4328;48.622;9.230;2022-12-07T12:33:06;5.03;;;4.53;;
8580;SDS011;4328;48.622;9.230;2022-12-07T12:35:41;6.47;;;4.53;;
8580;SDS011;4328;48.622;9.230;2022-12-07T12:38:25;5.50;;;4.90;;
8580;SDS011;4328;48.622;9.230;2022-12-07T12:40:55;4.60;;;4.13;;
8580;SDS011;4328;48.622;9.230;2022-12-07T12:43:39;7.07;;;5.07;;
8580;SDS011;4328;48.622;9.230;2022-12-07T12:46:38;6.47;;;4.90;;
8580;SDS011;4328;48.622;9.230;2022-12-07T12:58:37;5.03;;;4.17;;
8580;SDS011;4328;48.622;9.230;2022-12-07T13:04:23;5.77;;;4.47;;
8580;SDS011;4328;48.622;9.230;2022-12-07T13:06:53;5.10;;;4.23;;
8580;SDS011;4328;48.622;9.230;2022-12-07T13:09:21;4.13;;;3.73;;
8580;SDS011;4328;48.622;9.230;2022-12-07T13:11:56;4.10;;;3.70;;
8580;SDS011;4328;48.622;9.230;2022-12-07T13:14:39;4.27;;;3.30;;
8580;SDS011;4328;48.622;9.230;2022-12-07T13:23:09;3.27;;;2.97;;
8580;SDS011;4328;48.622;9.230;2022-12-07T13:25:38;3.33;;;3.03;;
8580;SDS011;4328;48.622;9.230;2022-12-07T13:28:16;3.77;;;2.90;;
8580;SDS011;4328;48.622;9.230;2022-12-07T13:30:50;3.90;;;3.50;;
8580;SDS011;4328;48.622;9.230;2022-12-07T13:33:27;3.50;;;3.20;;
8580;SDS011;4328;48.622;9.230;2022-12-07T13:35:55;3.00;;;2.67;;
8580;SDS011;4328;48.622;9.230;2022-12-07T13:38:25;4.23;;;3.20;;
8580;SDS011;4328;48.622;9.230;2022-12-07T13:43:49;3.13;;;2.83;;
8580;SDS011;4328;48.622;9.230;2022-12-07T13:46:19;4.03;;;2.60;;
8580;SDS011;4328;48.622;9.230;2022-12-07T13:48:51;3.17;;;2.87;;
8580;SDS011;4328;48.622;9.230;2022-12-07T13:51:20;3.07;;;2.83;;
8580;SDS011;4328;48.622;9.230;2022-12-07T13:53:48;3.37;;;3.07;;
8580;SDS011;4328;48.622;9.230;2022-12-07T13:56:16;3.43;;;2.70;;
8580;SDS011;4328;48.622;9.230;2022-12-07T13:58:43;3.40;;;3.10;;
8580;SDS011;4328;48.622;9.230;2022-12-07T14:01:12;2.93;;;2.73;;
8580;SDS011;4328;48.622;9.230;2022-12-07T14:03:39;3.07;;;2.77;;
8580;SDS011;4328;48.622;9.230;2022-12-07T14:06:17;3.40;;;3.10;;
8580;SDS011;4328;48.622;9.230;2022-12-07T14:09:05;3.37;;;2.73;;
8580;SDS011;4328;48.622;9.230;2022-12-07T14:11:33;4.10;;;3.13;;
8580;SDS011;4328;48.622;9.230;2022-12-07T14:14:00;2.97;;;2.77;;
8580;SDS011;4328;48.622;9.230;2022-12-07T14:16:30;3.93;;;3.00;;
8580;SDS011;4328;48.622;9.230;2022-12-07T14:18:58;3.07;;;2.77;;
8580;SDS011;4328;48.622;9.230;2022-12-07T14:21:27;4.63;;;3.03;;
8580;SDS011;4328;48.622;9.230;2022-12-07T14:24:11;3.57;;;2.83;;
8580;SDS011;4328;48.622;9.230;2022-12-07T14:26:42;3.23;;;2.93;;
8580;SDS011;4328;48.622;9.230;2022-12-07T14:29:19;3.93;;;3.10;;
8580;SDS011;4328;48.622;9.230;2022-12-07T14:31:49;3.77;;;3.47;;
8580;SDS011;4328;48.622;9.230;2022-12-07T14:34:16;3.90;;;3.60;;
8580;SDS011;4328;48.622;9.230;2022-12-07T14:36:45;3.73;;;3.43;;
8580;SDS011;4328;48.622;9.230;2022-12-07T14:39:12;3.93;;;3.53;;
8580;SDS011;4328;48.622;9.230;2022-12-07T14:41:38;4.37;;;3.17;;
8580;SDS011;4328;48.622;9.230;2022-12-07T14:44:17;3.33;;;3.10;;
8580;SDS011;4328;48.622;9.230;2022-12-07T14:46:45;4.30;;;3.27;;
8580;SDS011;4328;48.622;9.230;2022-12-07T14:49:14;3.73;;;3.20;;
8580;SDS011;4328;48.622;9.230;2022-12-07T14:51:40;4.23;;;2.90;;
8580;SDS011;4328;48.622;9.230;2022-12-07T14:54:12;3.20;;;2.90;;
8580;SDS011;4328;48.622;9.230;2022-12-07T14:56:41;3.47;;;3.17;;
8580;SDS011;4328;48.622;9.230;2022-12-07T14:59:09;3.47;;;3.17;;
8580;SDS011;4328;48.622;9.230;2022-12-07T15:01:36;2.90;;;2.70;;
8580;SDS011;4328;48.622;9.230;2022-12-07T15:04:02;2.80;;;2.60;;
8580;SDS011;4328;48.622;9.230;2022-12-07T15:06:31;2.80;;;2.57;;
8580;SDS011;4328;48.622;9.230;2022-12-07T15:08:57;2.63;;;2.43;;
8580;SDS011;4328;48.622;9.230;2022-12-07T15:11:24;2.97;;;2.47;;
8580;SDS011;4328;48.622;9.230;2022-12-07T15:13:50;2.30;;;2.10;;
8580;SDS011;4328;48.622;9.230;2022-12-07T15:16:37;4.07;;;2.67;;
8580;SDS011;4328;48.622;9.230;2022-12-07T15:19:06;3.23;;;2.90;;
8580;SDS011;4328;48.622;9.230;2022-12-07T15:21:37;2.97;;;2.10;;
8580;SDS011;4328;48.622;9.230;2022-12-07T15:24:04;2.17;;;1.97;;
8580;SDS011;4328;48.622;9.230;2022-12-07T15:26:31;2.30;;;2.20;;
8580;SDS011;4328;48.622;9.230;2022-12-07T15:28:58;2.87;;;2.67;;
8580;SDS011;4328;48.622;9.230;2022-12-07T15:31:25;2.53;;;2.33;;
8580;SDS011;4328;48.622;9.230;2022-12-07T15:33:51;3.00;;;2.70;;
8580;SDS011;4328;48.622;9.230;2022-12-07T15:36:18;2.73;;;2.50;;
8580;SDS011;4328;48.622;9.230;2022-12-07T15:38:48;3.33;;;3.03;;
8580;SDS011;4328;48.622;9.230;2022-12-07T15:41:15;3.73;;;2.73;;
8580;SDS011;4328;48.622;9.230;2022-12-07T15:43:42;3.10;;;2.80;;
8580;SDS011;4328;48.622;9.230;2022-12-07T15:46:29;4.40;;;2.80;;
8580;SDS011;4328;48.622;9.230;2022-12-07T15:48:56;2.60;;;2.40;;
8580;SDS011;4328;48.622;9.230;2022-12-07T15:51:22;2.20;;;2.10;;
8580;SDS011;4328;48.622;9.230;2022-12-07T15:53:51;3.10;;;2.33;;
8580;SDS011;4328;48.622;9.230;2022-12-07T15:56:17;3.60;;;2.43;;
8580;SDS011;4328;48.622;9.230;2022-12-07T15:58:44;2.43;;;2.23;;
8580;SDS011;4328;48.622;9.230;2022-12-07T16:01:11;2.47;;;2.30;;
8580;SDS011;4328;48.622;9.230;2022-12-07T16:03:38;2.37;;;2.17;;